Aérodrome :
LOGIN :

S'inscrire | Disclaimer

   EN    FR    IT 

 










Légende :    VFR   VFR Marginal   IFR   IFR Intensif   IFR Très Intensif
Visi : 
Plafond : 
>= 8 km
>= 3000ft
5 à 8 km
1000 à 3000 ft
1500m à 5 km
500 à 1000 ft
800 à 1500m
200 à 500 ft
< 800m
< 200 ft
Symboles :   Orages  Brouillard  Fortes neiges  Fortes précipitations  Vent > 20 kt
SIGMETs :   Divers  Orages  Givrage  Turbulence  Onde Orograph.  Cendres Volcan.







- Altitude de l'aérodrome : 755 ft
- Code IATA : DRS


EDDC - Dresden Klotzsche

DERNIER METAR :
  • 181120Z 24007KT 9999 BKN025 05/02 Q1026 NOSIG

METARs EXPIRÉS :
  • 181050Z 24005KT 210V280 9999 FEW026 05/02 Q1026 NOSIG
  • 181020Z 24004KT 220V280 9999 FEW012 BKN022 05/02 Q1026 NOSIG
  • 180950Z 24004KT 210V270 9999 -RA FEW012 SCT024 BKN032 05/02 Q1026 NOSIG
  • 180920Z 23005KT 9999 BKN023 SCT036 05/02 Q1027 NOSIG
  • 180850Z 23005KT 9999 SCT022 SCT028 04/02 Q1027 NOSIG
  • 180820Z 22007KT 9999 FEW029 SCT037 04/02 Q1026 NOSIG

TAF TAF EDDC
Valide du 18 à 06h jusqu'au 19 à 06h UTC


180500Z 1806/1906 22005KT 9999 BKN012
BECMG 1806/1808 BKN020
BECMG 1811/1814 15005KT
BECMG 1817/1820 15010KT
PROB30
TEMPO 1904/1906 15015G25KT
Pas de NOTAMs connus pour ce terrain.



MET'MAP, la Météo Aéronautique d'un coup d'oeil ! - Copyright ORBIFLY Décembre 2007 - Disclaimer

ORBIFLY MET'MAP TEAM :

Programmation & Développement : Alexandra Zaïnal
Conception & Développement : Baudouin d'Aumeries
Co-Programmation & Développement : Marc-Olivier Méhu
Soutien technique & logistique : Manuel Goepfert

Contact : metmap@orbifly.com




SOURCES & CREDITS :

   NOAA